sensor_id;sensor_type;location;lat;lon;timestamp;temperature;humidity
17992;DHT22;9121;50.926;5.340;2023-05-10T00:01:35;14.50;99.90
17992;DHT22;9121;50.926;5.340;2023-05-10T00:04:02;14.50;99.90
17992;DHT22;9121;50.926;5.340;2023-05-10T00:06:28;14.50;99.90
17992;DHT22;9121;50.926;5.340;2023-05-10T00:08:57;14.50;99.90
17992;DHT22;9121;50.926;5.340;2023-05-10T00:11:24;14.50;99.90
17992;DHT22;9121;50.926;5.340;2023-05-10T00:13:50;14.50;99.90
17992;DHT22;9121;50.926;5.340;2023-05-10T00:16:17;14.50;99.90
17992;DHT22;9121;50.926;5.340;2023-05-10T00:18:44;14.50;99.90
17992;DHT22;9121;50.926;5.340;2023-05-10T00:21:11;14.50;99.90
17992;DHT22;9121;50.926;5.340;2023-05-10T00:23:38;14.50;99.90
17992;DHT22;9121;50.926;5.340;2023-05-10T00:26:07;14.50;99.90
17992;DHT22;9121;50.926;5.340;2023-05-10T00:28:34;14.50;99.90
17992;DHT22;9121;50.926;5.340;2023-05-10T00:31:00;14.60;99.90
17992;DHT22;9121;50.926;5.340;2023-05-10T00:33:27;14.50;99.90
17992;DHT22;9121;50.926;5.340;2023-05-10T00:35:54;14.50;99.90
17992;DHT22;9121;50.926;5.340;2023-05-10T00:38:21;14.60;99.90
17992;DHT22;9121;50.926;5.340;2023-05-10T00:40:48;14.60;99.90
17992;DHT22;9121;50.926;5.340;2023-05-10T00:43:16;14.60;99.90
17992;DHT22;9121;50.926;5.340;2023-05-10T00:45:43;14.60;99.90
17992;DHT22;9121;50.926;5.340;2023-05-10T00:48:11;14.50;99.90
17992;DHT22;9121;50.926;5.340;2023-05-10T00:50:38;14.40;99.90
17992;DHT22;9121;50.926;5.340;2023-05-10T00:53:06;14.40;99.90
17992;DHT22;9121;50.926;5.340;2023-05-10T00:55:34;14.40;99.90
17992;DHT22;9121;50.926;5.340;2023-05-10T00:58:01;14.30;99.90
17992;DHT22;9121;50.926;5.340;2023-05-10T01:00:30;14.30;99.90
17992;DHT22;9121;50.926;5.340;2023-05-10T01:02:57;14.30;99.90
17992;DHT22;9121;50.926;5.340;2023-05-10T01:05:24;14.30;99.90
17992;DHT22;9121;50.926;5.340;2023-05-10T01:07:52;14.30;99.90
17992;DHT22;9121;50.926;5.340;2023-05-10T01:10:19;14.20;99.90
17992;DHT22;9121;50.926;5.340;2023-05-10T01:12:47;14.20;99.90
17992;DHT22;9121;50.926;5.340;2023-05-10T01:15:14;14.30;99.90
17992;DHT22;9121;50.926;5.340;2023-05-10T01:17:45;14.30;99.90
17992;DHT22;9121;50.926;5.340;2023-05-10T01:20:12;14.30;99.90
17992;DHT22;9121;50.926;5.340;2023-05-10T01:23:02;14.30;99.90
17992;DHT22;9121;50.926;5.340;2023-05-10T01:25:47;14.20;99.90
17992;DHT22;9121;50.926;5.340;2023-05-10T01:34:41;14.20;99.90
17992;DHT22;9121;50.926;5.340;2023-05-10T01:37:13;14.10;99.90
17992;DHT22;9121;50.926;5.340;2023-05-10T01:39:45;14.20;99.90
17992;DHT22;9121;50.926;5.340;2023-05-10T01:42:17;14.20;99.90
17992;DHT22;9121;50.926;5.340;2023-05-10T01:44:52;14.20;99.90
17992;DHT22;9121;50.926;5.340;2023-05-10T01:47:27;14.20;99.90
17992;DHT22;9121;50.926;5.340;2023-05-10T01:49:56;14.30;99.90
17992;DHT22;9121;50.926;5.340;2023-05-10T01:52:28;14.30;99.90
17992;DHT22;9121;50.926;5.340;2023-05-10T01:55:01;14.20;99.90
17992;DHT22;9121;50.926;5.340;2023-05-10T01:57:35;14.30;99.90
17992;DHT22;9121;50.926;5.340;2023-05-10T02:00:03;14.20;99.90
17992;DHT22;9121;50.926;5.340;2023-05-10T02:02:34;14.20;99.90
17992;DHT22;9121;50.926;5.340;2023-05-10T02:05:06;14.20;99.90
17992;DHT22;9121;50.926;5.340;2023-05-10T02:07:35;14.10;99.90
17992;DHT22;9121;50.926;5.340;2023-05-10T02:10:03;14.10;99.90
17992;DHT22;9121;50.926;5.340;2023-05-10T02:12:32;14.20;99.90
17992;DHT22;9121;50.926;5.340;2023-05-10T02:15:04;14.20;99.90
17992;DHT22;9121;50.926;5.340;2023-05-10T02:17:34;14.30;99.90
17992;DHT22;9121;50.926;5.340;2023-05-10T02:20:03;14.30;99.90
17992;DHT22;9121;50.926;5.340;2023-05-10T02:22:30;14.20;99.90
17992;DHT22;9121;50.926;5.340;2023-05-10T02:24:58;14.30;99.90
17992;DHT22;9121;50.926;5.340;2023-05-10T02:27:27;14.20;99.90
17992;DHT22;9121;50.926;5.340;2023-05-10T02:29:55;14.20;99.90
17992;DHT22;9121;50.926;5.340;2023-05-10T02:32:24;14.30;99.90
17992;DHT22;9121;50.926;5.340;2023-05-10T02:34:54;14.20;99.90
17992;DHT22;9121;50.926;5.340;2023-05-10T02:37:22;14.30;99.90
17992;DHT22;9121;50.926;5.340;2023-05-10T02:39:52;14.30;99.90
17992;DHT22;9121;50.926;5.340;2023-05-10T02:42:23;14.30;99.90
17992;DHT22;9121;50.926;5.340;2023-05-10T02:44:53;14.10;99.90
17992;DHT22;9121;50.926;5.340;2023-05-10T02:47:20;14.10;99.90
17992;DHT22;9121;50.926;5.340;2023-05-10T02:49:47;14.10;99.90
17992;DHT22;9121;50.926;5.340;2023-05-10T02:52:21;14.10;99.90
17992;DHT22;9121;50.926;5.340;2023-05-10T02:54:52;14.20;99.90
17992;DHT22;9121;50.926;5.340;2023-05-10T02:57:25;14.20;99.90
17992;DHT22;9121;50.926;5.340;2023-05-10T02:59:53;14.30;99.90
17992;DHT22;9121;50.926;5.340;2023-05-10T03:02:21;14.30;99.90
17992;DHT22;9121;50.926;5.340;2023-05-10T03:04:48;14.30;99.90
17992;DHT22;9121;50.926;5.340;2023-05-10T03:07:16;14.30;99.90
17992;DHT22;9121;50.926;5.340;2023-05-10T03:09:45;14.30;99.90
17992;DHT22;9121;50.926;5.340;2023-05-10T03:12:15;14.30;99.90
17992;DHT22;9121;50.926;5.340;2023-05-10T03:14:51;14.30;99.90
17992;DHT22;9121;50.926;5.340;2023-05-10T03:17:25;14.30;99.90
17992;DHT22;9121;50.926;5.340;2023-05-10T03:19:57;14.30;99.90
17992;DHT22;9121;50.926;5.340;2023-05-10T03:22:29;14.30;99.90
17992;DHT22;9121;50.926;5.340;2023-05-10T03:24:58;14.20;99.90
17992;DHT22;9121;50.926;5.340;2023-05-10T03:27:27;14.20;99.90
17992;DHT22;9121;50.926;5.340;2023-05-10T03:29:56;14.10;99.90
17992;DHT22;9121;50.926;5.340;2023-05-10T03:32:24;14.10;99.90
17992;DHT22;9121;50.926;5.340;2023-05-10T03:34:52;14.10;99.90
17992;DHT22;9121;50.926;5.340;2023-05-10T03:37:19;14.10;99.90
17992;DHT22;9121;50.926;5.340;2023-05-10T03:39:47;14.10;99.90
17992;DHT22;9121;50.926;5.340;2023-05-10T03:42:14;14.20;99.90
17992;DHT22;9121;50.926;5.340;2023-05-10T03:44:43;14.20;99.90
17992;DHT22;9121;50.926;5.340;2023-05-10T03:47:10;14.20;99.90
17992;DHT22;9121;50.926;5.340;2023-05-10T03:49:37;14.20;99.90
17992;DHT22;9121;50.926;5.340;2023-05-10T03:52:04;14.20;99.90
17992;DHT22;9121;50.926;5.340;2023-05-10T03:54:31;14.20;99.90
17992;DHT22;9121;50.926;5.340;2023-05-10T03:56:59;14.20;99.90
17992;DHT22;9121;50.926;5.340;2023-05-10T03:59:27;14.20;99.90
17992;DHT22;9121;50.926;5.340;2023-05-10T04:01:53;14.30;99.90
17992;DHT22;9121;50.926;5.340;2023-05-10T04:04:20;14.30;99.90
17992;DHT22;9121;50.926;5.340;2023-05-10T04:06:48;14.20;99.90
17992;DHT22;9121;50.926;5.340;2023-05-10T04:09:15;14.00;99.90
17992;DHT22;9121;50.926;5.340;2023-05-10T04:11:43;13.80;99.90
17992;DHT22;9121;50.926;5.340;2023-05-10T04:14:11;13.70;99.90
17992;DHT22;9121;50.926;5.340;2023-05-10T04:16:38;13.60;99.90
17992;DHT22;9121;50.926;5.340;2023-05-10T04:19:05;13.50;99.90
17992;DHT22;9121;50.926;5.340;2023-05-10T04:21:32;13.50;99.90
17992;DHT22;9121;50.926;5.340;2023-05-10T04:23:59;13.50;99.90
17992;DHT22;9121;50.926;5.340;2023-05-10T04:26:25;13.50;99.90
17992;DHT22;9121;50.926;5.340;2023-05-10T04:28:52;13.40;99.90
17992;DHT22;9121;50.926;5.340;2023-05-10T04:31:21;13.40;99.90
17992;DHT22;9121;50.926;5.340;2023-05-10T04:33:48;13.40;99.90
17992;DHT22;9121;50.926;5.340;2023-05-10T04:36:15;13.40;99.90
17992;DHT22;9121;50.926;5.340;2023-05-10T04:38:42;13.40;99.90
17992;DHT22;9121;50.926;5.340;2023-05-10T04:41:10;13.40;99.90
17992;DHT22;9121;50.926;5.340;2023-05-10T04:43:38;13.50;99.90
17992;DHT22;9121;50.926;5.340;2023-05-10T04:46:05;13.40;99.90
17992;DHT22;9121;50.926;5.340;2023-05-10T04:48:34;13.40;99.90
17992;DHT22;9121;50.926;5.340;2023-05-10T04:51:00;13.40;99.90
17992;DHT22;9121;50.926;5.340;2023-05-10T04:53:29;13.40;99.90
17992;DHT22;9121;50.926;5.340;2023-05-10T04:55:56;13.40;99.90
17992;DHT22;9121;50.926;5.340;2023-05-10T04:58:23;13.30;99.90
17992;DHT22;9121;50.926;5.340;2023-05-10T05:00:50;13.30;99.90
17992;DHT22;9121;50.926;5.340;2023-05-10T05:03:17;13.30;99.90
17992;DHT22;9121;50.926;5.340;2023-05-10T05:05:45;13.20;99.90
17992;DHT22;9121;50.926;5.340;2023-05-10T05:08:12;13.20;99.90
17992;DHT22;9121;50.926;5.340;2023-05-10T05:10:39;13.10;99.90
17992;DHT22;9121;50.926;5.340;2023-05-10T05:13:06;13.20;99.90
17992;DHT22;9121;50.926;5.340;2023-05-10T05:15:33;13.20;99.90
17992;DHT22;9121;50.926;5.340;2023-05-10T05:18:00;13.30;99.90
17992;DHT22;9121;50.926;5.340;2023-05-10T05:20:27;13.20;99.90
17992;DHT22;9121;50.926;5.340;2023-05-10T05:22:55;13.30;99.90
17992;DHT22;9121;50.926;5.340;2023-05-10T05:25:22;13.30;99.90
17992;DHT22;9121;50.926;5.340;2023-05-10T05:27:49;13.40;99.90
17992;DHT22;9121;50.926;5.340;2023-05-10T05:30:16;13.30;99.90
17992;DHT22;9121;50.926;5.340;2023-05-10T05:32:43;13.30;99.90
17992;DHT22;9121;50.926;5.340;2023-05-10T05:35:10;13.20;99.90
17992;DHT22;9121;50.926;5.340;2023-05-10T05:37:37;13.20;99.90
17992;DHT22;9121;50.926;5.340;2023-05-10T05:40:06;13.20;99.90
17992;DHT22;9121;50.926;5.340;2023-05-10T05:42:33;13.20;99.90
17992;DHT22;9121;50.926;5.340;2023-05-10T05:45:00;13.30;99.90
17992;DHT22;9121;50.926;5.340;2023-05-10T05:47:27;13.20;99.90
17992;DHT22;9121;50.926;5.340;2023-05-10T05:49:54;13.30;99.90
17992;DHT22;9121;50.926;5.340;2023-05-10T05:52:21;13.30;99.90
17992;DHT22;9121;50.926;5.340;2023-05-10T05:54:49;13.30;99.90
17992;DHT22;9121;50.926;5.340;2023-05-10T05:57:17;13.30;99.90
17992;DHT22;9121;50.926;5.340;2023-05-10T05:59:44;13.30;99.90
17992;DHT22;9121;50.926;5.340;2023-05-10T06:02:11;13.30;99.90
17992;DHT22;9121;50.926;5.340;2023-05-10T06:04:38;13.30;99.90
17992;DHT22;9121;50.926;5.340;2023-05-10T06:07:05;13.30;99.90
17992;DHT22;9121;50.926;5.340;2023-05-10T06:09:32;13.30;99.90
17992;DHT22;9121;50.926;5.340;2023-05-10T06:11:59;13.40;99.90
17992;DHT22;9121;50.926;5.340;2023-05-10T06:14:27;13.40;99.90
17992;DHT22;9121;50.926;5.340;2023-05-10T06:16:54;13.40;99.90
17992;DHT22;9121;50.926;5.340;2023-05-10T06:19:21;13.50;99.90
17992;DHT22;9121;50.926;5.340;2023-05-10T06:21:48;13.50;99.90
17992;DHT22;9121;50.926;5.340;2023-05-10T06:24:15;13.50;99.90
17992;DHT22;9121;50.926;5.340;2023-05-10T06:26:41;13.50;99.90
17992;DHT22;9121;50.926;5.340;2023-05-10T06:29:08;13.50;99.90
17992;DHT22;9121;50.926;5.340;2023-05-10T06:31:37;13.50;99.90
17992;DHT22;9121;50.926;5.340;2023-05-10T06:34:04;13.50;99.90
17992;DHT22;9121;50.926;5.340;2023-05-10T06:36:33;13.60;99.90
17992;DHT22;9121;50.926;5.340;2023-05-10T06:39:00;13.70;99.90
17992;DHT22;9121;50.926;5.340;2023-05-10T06:41:27;13.60;99.90
17992;DHT22;9121;50.926;5.340;2023-05-10T06:43:54;13.70;99.90
17992;DHT22;9121;50.926;5.340;2023-05-10T06:46:21;13.70;99.90
17992;DHT22;9121;50.926;5.340;2023-05-10T06:48:49;13.70;99.90
17992;DHT22;9121;50.926;5.340;2023-05-10T06:51:16;13.70;99.90
17992;DHT22;9121;50.926;5.340;2023-05-10T06:53:43;13.70;99.90
17992;DHT22;9121;50.926;5.340;2023-05-10T06:56:10;13.70;99.90
17992;DHT22;9121;50.926;5.340;2023-05-10T06:58:37;13.70;99.90
17992;DHT22;9121;50.926;5.340;2023-05-10T07:01:05;13.60;99.90
17992;DHT22;9121;50.926;5.340;2023-05-10T07:03:32;13.70;99.90
17992;DHT22;9121;50.926;5.340;2023-05-10T07:06:03;13.60;99.90
17992;DHT22;9121;50.926;5.340;2023-05-10T07:08:33;13.70;99.90
17992;DHT22;9121;50.926;5.340;2023-05-10T07:11:01;13.70;99.90
17992;DHT22;9121;50.926;5.340;2023-05-10T07:13:29;13.70;99.90
17992;DHT22;9121;50.926;5.340;2023-05-10T07:15:57;13.70;99.90
17992;DHT22;9121;50.926;5.340;2023-05-10T07:18:24;13.70;99.90
17992;DHT22;9121;50.926;5.340;2023-05-10T07:20:51;13.80;99.90
17992;DHT22;9121;50.926;5.340;2023-05-10T07:23:19;13.80;99.90
17992;DHT22;9121;50.926;5.340;2023-05-10T07:25:46;13.80;99.90
17992;DHT22;9121;50.926;5.340;2023-05-10T07:28:14;13.80;99.90
17992;DHT22;9121;50.926;5.340;2023-05-10T07:30:41;13.70;99.90
17992;DHT22;9121;50.926;5.340;2023-05-10T07:33:08;13.70;99.90
17992;DHT22;9121;50.926;5.340;2023-05-10T07:35:35;13.70;99.90
17992;DHT22;9121;50.926;5.340;2023-05-10T07:38:02;13.70;99.90
17992;DHT22;9121;50.926;5.340;2023-05-10T07:40:31;13.70;99.90
17992;DHT22;9121;50.926;5.340;2023-05-10T07:42:58;13.70;99.90
17992;DHT22;9121;50.926;5.340;2023-05-10T07:45:27;13.80;99.90
17992;DHT22;9121;50.926;5.340;2023-05-10T07:47:54;13.80;99.90
17992;DHT22;9121;50.926;5.340;2023-05-10T07:50:21;13.80;99.90
17992;DHT22;9121;50.926;5.340;2023-05-10T07:52:48;13.90;99.90
17992;DHT22;9121;50.926;5.340;2023-05-10T07:55:14;13.90;99.90
17992;DHT22;9121;50.926;5.340;2023-05-10T07:57:43;13.90;99.90
17992;DHT22;9121;50.926;5.340;2023-05-10T08:00:12;14.00;99.90
17992;DHT22;9121;50.926;5.340;2023-05-10T08:02:40;14.00;99.90
17992;DHT22;9121;50.926;5.340;2023-05-10T08:05:08;14.10;99.90
17992;DHT22;9121;50.926;5.340;2023-05-10T08:07:35;14.20;99.90
17992;DHT22;9121;50.926;5.340;2023-05-10T08:10:02;14.20;99.90
17992;DHT22;9121;50.926;5.340;2023-05-10T08:12:29;14.10;99.90
17992;DHT22;9121;50.926;5.340;2023-05-10T08:14:58;14.00;99.90
17992;DHT22;9121;50.926;5.340;2023-05-10T08:17:25;13.80;99.90
17992;DHT22;9121;50.926;5.340;2023-05-10T08:19:52;13.50;99.90
17992;DHT22;9121;50.926;5.340;2023-05-10T08:22:19;13.40;99.90
17992;DHT22;9121;50.926;5.340;2023-05-10T08:24:46;13.50;99.90
17992;DHT22;9121;50.926;5.340;2023-05-10T08:27:13;13.40;99.90
17992;DHT22;9121;50.926;5.340;2023-05-10T08:29:40;13.40;99.90
17992;DHT22;9121;50.926;5.340;2023-05-10T08:32:08;13.30;99.90
17992;DHT22;9121;50.926;5.340;2023-05-10T08:34:35;13.20;99.90
17992;DHT22;9121;50.926;5.340;2023-05-10T08:37:02;13.20;99.90
17992;DHT22;9121;50.926;5.340;2023-05-10T08:39:33;13.10;99.90
17992;DHT22;9121;50.926;5.340;2023-05-10T08:42:02;13.20;99.90
17992;DHT22;9121;50.926;5.340;2023-05-10T08:44:32;13.10;99.90
17992;DHT22;9121;50.926;5.340;2023-05-10T08:47:04;13.00;99.90
17992;DHT22;9121;50.926;5.340;2023-05-10T08:49:32;13.00;99.90
17992;DHT22;9121;50.926;5.340;2023-05-10T08:52:02;13.10;99.90
17992;DHT22;9121;50.926;5.340;2023-05-10T08:54:32;13.10;99.90
17992;DHT22;9121;50.926;5.340;2023-05-10T08:56:59;13.30;99.90
17992;DHT22;9121;50.926;5.340;2023-05-10T08:59:26;13.30;99.90
17992;DHT22;9121;50.926;5.340;2023-05-10T09:01:56;13.20;99.90
17992;DHT22;9121;50.926;5.340;2023-05-10T09:04:24;13.20;99.90
17992;DHT22;9121;50.926;5.340;2023-05-10T09:06:52;13.20;99.90
17992;DHT22;9121;50.926;5.340;2023-05-10T09:09:19;13.40;99.90
17992;DHT22;9121;50.926;5.340;2023-05-10T09:11:47;13.40;99.90
17992;DHT22;9121;50.926;5.340;2023-05-10T09:14:15;13.50;99.90
17992;DHT22;9121;50.926;5.340;2023-05-10T09:16:42;13.50;99.90
17992;DHT22;9121;50.926;5.340;2023-05-10T09:19:10;13.60;99.90
17992;DHT22;9121;50.926;5.340;2023-05-10T09:21:37;13.70;99.90
17992;DHT22;9121;50.926;5.340;2023-05-10T09:24:07;13.70;99.90
17992;DHT22;9121;50.926;5.340;2023-05-10T09:26:34;13.70;99.90
17992;DHT22;9121;50.926;5.340;2023-05-10T09:29:02;13.80;99.90
17992;DHT22;9121;50.926;5.340;2023-05-10T09:31:46;13.90;99.90
17992;DHT22;9121;50.926;5.340;2023-05-10T09:34:16;13.90;99.90
17992;DHT22;9121;50.926;5.340;2023-05-10T09:36:54;13.90;99.90
17992;DHT22;9121;50.926;5.340;2023-05-10T09:39:30;14.00;99.90
17992;DHT22;9121;50.926;5.340;2023-05-10T09:41:58;14.10;99.90
17992;DHT22;9121;50.926;5.340;2023-05-10T09:44:26;14.10;99.90
17992;DHT22;9121;50.926;5.340;2023-05-10T09:46:53;14.10;99.90
17992;DHT22;9121;50.926;5.340;2023-05-10T09:49:21;14.20;99.90
17992;DHT22;9121;50.926;5.340;2023-05-10T09:52:01;14.40;99.90
17992;DHT22;9121;50.926;5.340;2023-05-10T09:54:30;14.40;99.90
17992;DHT22;9121;50.926;5.340;2023-05-10T09:56:57;14.50;99.90
17992;DHT22;9121;50.926;5.340;2023-05-10T09:59:25;14.60;99.90
17992;DHT22;9121;50.926;5.340;2023-05-10T10:01:53;14.70;99.90
17992;DHT22;9121;50.926;5.340;2023-05-10T10:04:22;14.70;99.90
17992;DHT22;9121;50.926;5.340;2023-05-10T10:06:59;14.80;99.90
17992;DHT22;9121;50.926;5.340;2023-05-10T10:09:27;14.70;99.90
17992;DHT22;9121;50.926;5.340;2023-05-10T10:11:56;14.80;99.90
17992;DHT22;9121;50.926;5.340;2023-05-10T10:14:23;14.80;99.90
17992;DHT22;9121;50.926;5.340;2023-05-10T10:16:51;14.80;99.90
17992;DHT22;9121;50.926;5.340;2023-05-10T10:19:18;14.80;99.90
17992;DHT22;9121;50.926;5.340;2023-05-10T10:21:45;14.70;99.90
17992;DHT22;9121;50.926;5.340;2023-05-10T10:24:12;14.70;99.90
17992;DHT22;9121;50.926;5.340;2023-05-10T10:26:40;14.70;99.90
17992;DHT22;9121;50.926;5.340;2023-05-10T10:29:15;14.70;99.90
17992;DHT22;9121;50.926;5.340;2023-05-10T10:31:47;14.80;99.90
17992;DHT22;9121;50.926;5.340;2023-05-10T10:34:25;14.80;99.90
17992;DHT22;9121;50.926;5.340;2023-05-10T10:36:52;14.90;99.90
17992;DHT22;9121;50.926;5.340;2023-05-10T10:39:20;14.90;99.90
17992;DHT22;9121;50.926;5.340;2023-05-10T10:41:52;14.80;99.90
17992;DHT22;9121;50.926;5.340;2023-05-10T10:44:25;14.80;99.90
17992;DHT22;9121;50.926;5.340;2023-05-10T10:46:59;14.80;99.90
17992;DHT22;9121;50.926;5.340;2023-05-10T10:49:26;14.80;99.90
17992;DHT22;9121;50.926;5.340;2023-05-10T10:52:15;14.80;99.90
17992;DHT22;9121;50.926;5.340;2023-05-10T10:54:49;14.80;99.90
17992;DHT22;9121;50.926;5.340;2023-05-10T10:57:18;14.80;99.90
17992;DHT22;9121;50.926;5.340;2023-05-10T10:59:48;14.90;99.90
17992;DHT22;9121;50.926;5.340;2023-05-10T11:02:34;15.10;99.90
17992;DHT22;9121;50.926;5.340;2023-05-10T11:05:40;15.20;99.90
17992;DHT22;9121;50.926;5.340;2023-05-10T11:08:12;15.30;99.90
17992;DHT22;9121;50.926;5.340;2023-05-10T11:10:48;15.30;99.90
17992;DHT22;9121;50.926;5.340;2023-05-10T11:13:27;15.40;99.90
17992;DHT22;9121;50.926;5.340;2023-05-10T11:15:56;15.20;99.90
17992;DHT22;9121;50.926;5.340;2023-05-10T11:18:26;15.30;99.90
17992;DHT22;9121;50.926;5.340;2023-05-10T11:20:56;15.30;99.90
17992;DHT22;9121;50.926;5.340;2023-05-10T11:23:30;15.30;99.90
17992;DHT22;9121;50.926;5.340;2023-05-10T11:25:57;15.40;99.90
17992;DHT22;9121;50.926;5.340;2023-05-10T11:28:24;15.30;99.90
17992;DHT22;9121;50.926;5.340;2023-05-10T11:30:52;15.40;99.90
17992;DHT22;9121;50.926;5.340;2023-05-10T11:33:21;15.60;99.90
17992;DHT22;9121;50.926;5.340;2023-05-10T11:35:48;15.60;99.90
17992;DHT22;9121;50.926;5.340;2023-05-10T11:38:15;15.70;99.90
17992;DHT22;9121;50.926;5.340;2023-05-10T11:40:43;15.90;99.90
17992;DHT22;9121;50.926;5.340;2023-05-10T11:43:10;16.00;99.90
17992;DHT22;9121;50.926;5.340;2023-05-10T11:45:39;16.00;99.90
17992;DHT22;9121;50.926;5.340;2023-05-10T11:48:06;16.10;99.90
17992;DHT22;9121;50.926;5.340;2023-05-10T11:50:35;16.00;99.90
17992;DHT22;9121;50.926;5.340;2023-05-10T11:53:02;16.00;99.90
17992;DHT22;9121;50.926;5.340;2023-05-10T11:55:29;16.10;99.90
17992;DHT22;9121;50.926;5.340;2023-05-10T11:58:01;16.20;99.90
17992;DHT22;9121;50.926;5.340;2023-05-10T12:00:28;16.20;99.90
17992;DHT22;9121;50.926;5.340;2023-05-10T12:02:55;16.10;99.90
17992;DHT22;9121;50.926;5.340;2023-05-10T12:05:22;16.00;99.90
17992;DHT22;9121;50.926;5.340;2023-05-10T12:07:51;15.90;99.90
17992;DHT22;9121;50.926;5.340;2023-05-10T12:10:25;15.90;99.90
17992;DHT22;9121;50.926;5.340;2023-05-10T12:12:53;15.90;99.90
17992;DHT22;9121;50.926;5.340;2023-05-10T12:15:20;16.00;99.90
17992;DHT22;9121;50.926;5.340;2023-05-10T12:17:48;15.90;99.90
17992;DHT22;9121;50.926;5.340;2023-05-10T12:20:16;15.90;99.90
17992;DHT22;9121;50.926;5.340;2023-05-10T12:22:48;15.80;99.90
17992;DHT22;9121;50.926;5.340;2023-05-10T12:25:17;15.90;99.90
17992;DHT22;9121;50.926;5.340;2023-05-10T12:27:51;15.90;99.90
17992;DHT22;9121;50.926;5.340;2023-05-10T12:30:21;16.10;99.90
17992;DHT22;9121;50.926;5.340;2023-05-10T12:32:49;16.10;99.90
17992;DHT22;9121;50.926;5.340;2023-05-10T12:35:16;16.30;99.90
17992;DHT22;9121;50.926;5.340;2023-05-10T12:37:46;16.40;99.90
17992;DHT22;9121;50.926;5.340;2023-05-10T12:40:13;16.30;99.90
17992;DHT22;9121;50.926;5.340;2023-05-10T12:42:42;16.40;99.90
17992;DHT22;9121;50.926;5.340;2023-05-10T12:45:10;16.60;99.90
17992;DHT22;9121;50.926;5.340;2023-05-10T12:47:38;16.60;99.90
17992;DHT22;9121;50.926;5.340;2023-05-10T12:50:06;16.70;99.90
17992;DHT22;9121;50.926;5.340;2023-05-10T12:52:33;16.80;99.90
17992;DHT22;9121;50.926;5.340;2023-05-10T12:55:00;16.80;99.90
17992;DHT22;9121;50.926;5.340;2023-05-10T12:57:28;16.80;99.90
17992;DHT22;9121;50.926;5.340;2023-05-10T12:59:57;16.70;99.90
17992;DHT22;9121;50.926;5.340;2023-05-10T13:02:24;16.60;99.90
17992;DHT22;9121;50.926;5.340;2023-05-10T13:04:51;16.70;99.90
17992;DHT22;9121;50.926;5.340;2023-05-10T13:07:18;16.90;99.90
17992;DHT22;9121;50.926;5.340;2023-05-10T13:09:45;16.90;97.50
17992;DHT22;9121;50.926;5.340;2023-05-10T13:12:12;17.00;94.90
17992;DHT22;9121;50.926;5.340;2023-05-10T13:14:39;17.20;98.50
17992;DHT22;9121;50.926;5.340;2023-05-10T13:17:08;17.40;98.20
17992;DHT22;9121;50.926;5.340;2023-05-10T13:19:35;17.30;91.00
17992;DHT22;9121;50.926;5.340;2023-05-10T13:22:03;17.30;95.00
17992;DHT22;9121;50.926;5.340;2023-05-10T13:24:30;17.30;98.30
17992;DHT22;9121;50.926;5.340;2023-05-10T13:26:58;17.50;94.60
17992;DHT22;9121;50.926;5.340;2023-05-10T13:29:25;17.70;91.30
17992;DHT22;9121;50.926;5.340;2023-05-10T13:31:52;17.60;88.30
17992;DHT22;9121;50.926;5.340;2023-05-10T13:34:20;17.60;94.20
17992;DHT22;9121;50.926;5.340;2023-05-10T13:36:47;17.80;96.60
17992;DHT22;9121;50.926;5.340;2023-05-10T13:39:14;17.80;86.70
17992;DHT22;9121;50.926;5.340;2023-05-10T13:41:41;17.80;80.20
17992;DHT22;9121;50.926;5.340;2023-05-10T13:44:08;18.00;80.60
17992;DHT22;9121;50.926;5.340;2023-05-10T13:46:36;17.80;80.50
17992;DHT22;9121;50.926;5.340;2023-05-10T13:49:04;17.70;83.00
17992;DHT22;9121;50.926;5.340;2023-05-10T13:51:33;17.50;90.80
17992;DHT22;9121;50.926;5.340;2023-05-10T13:54:00;17.60;90.70
17992;DHT22;9121;50.926;5.340;2023-05-10T13:56:27;17.40;84.20
17992;DHT22;9121;50.926;5.340;2023-05-10T13:58:55;17.20;88.50
17992;DHT22;9121;50.926;5.340;2023-05-10T14:01:23;17.10;95.30
17992;DHT22;9121;50.926;5.340;2023-05-10T14:03:49;17.20;93.90
17992;DHT22;9121;50.926;5.340;2023-05-10T14:06:16;17.20;97.70
17992;DHT22;9121;50.926;5.340;2023-05-10T14:08:45;17.10;97.20
17992;DHT22;9121;50.926;5.340;2023-05-10T14:11:12;17.10;99.20
17992;DHT22;9121;50.926;5.340;2023-05-10T14:13:39;17.00;96.90
17992;DHT22;9121;50.926;5.340;2023-05-10T14:16:06;17.00;99.70
17992;DHT22;9121;50.926;5.340;2023-05-10T14:18:33;17.10;98.50
17992;DHT22;9121;50.926;5.340;2023-05-10T14:21:02;17.00;98.80
17992;DHT22;9121;50.926;5.340;2023-05-10T14:23:28;17.10;99.90
17992;DHT22;9121;50.926;5.340;2023-05-10T14:25:57;17.30;99.90
17992;DHT22;9121;50.926;5.340;2023-05-10T14:28:24;17.50;95.60
17992;DHT22;9121;50.926;5.340;2023-05-10T14:30:51;17.70;92.50
17992;DHT22;9121;50.926;5.340;2023-05-10T14:33:18;17.90;93.80
17992;DHT22;9121;50.926;5.340;2023-05-10T14:35:46;18.10;76.10
17992;DHT22;9121;50.926;5.340;2023-05-10T14:38:13;17.90;78.30
17992;DHT22;9121;50.926;5.340;2023-05-10T14:40:40;18.00;92.50
17992;DHT22;9121;50.926;5.340;2023-05-10T14:43:09;18.20;88.20
17992;DHT22;9121;50.926;5.340;2023-05-10T14:45:36;18.60;74.50
17992;DHT22;9121;50.926;5.340;2023-05-10T14:48:03;19.00;47.20
17992;DHT22;9121;50.926;5.340;2023-05-10T14:50:31;19.80;29.50
17992;DHT22;9121;50.926;5.340;2023-05-10T14:52:58;20.30;29.10
17992;DHT22;9121;50.926;5.340;2023-05-10T14:55:25;20.70;1.00
17992;DHT22;9121;50.926;5.340;2023-05-10T14:57:52;21.10;1.00
17992;DHT22;9121;50.926;5.340;2023-05-10T15:00:21;21.30;1.00
17992;DHT22;9121;50.926;5.340;2023-05-10T15:02:48;22.00;1.00
17992;DHT22;9121;50.926;5.340;2023-05-10T15:05:15;21.90;99.90
17992;DHT22;9121;50.926;5.340;2023-05-10T15:07:43;21.10;1.00
17992;DHT22;9121;50.926;5.340;2023-05-10T15:10:11;20.50;1.00
17992;DHT22;9121;50.926;5.340;2023-05-10T15:12:38;19.50;1.00
17992;DHT22;9121;50.926;5.340;2023-05-10T15:15:06;19.30;1.00
17992;DHT22;9121;50.926;5.340;2023-05-10T15:17:35;19.00;1.00
17992;DHT22;9121;50.926;5.340;2023-05-10T15:20:02;18.90;1.00
17992;DHT22;9121;50.926;5.340;2023-05-10T15:22:29;18.90;1.00
17992;DHT22;9121;50.926;5.340;2023-05-10T15:24:57;18.90;1.00
17992;DHT22;9121;50.926;5.340;2023-05-10T15:27:24;19.00;1.00
17992;DHT22;9121;50.926;5.340;2023-05-10T15:29:51;19.00;1.00
17992;DHT22;9121;50.926;5.340;2023-05-10T15:32:18;18.80;1.00
17992;DHT22;9121;50.926;5.340;2023-05-10T15:34:46;18.90;1.00
17992;DHT22;9121;50.926;5.340;2023-05-10T15:37:13;19.20;1.00
17992;DHT22;9121;50.926;5.340;2023-05-10T15:39:40;19.30;1.00
17992;DHT22;9121;50.926;5.340;2023-05-10T15:42:07;19.20;1.00
17992;DHT22;9121;50.926;5.340;2023-05-10T15:44:34;19.00;1.00
17992;DHT22;9121;50.926;5.340;2023-05-10T15:47:04;19.00;1.00
17992;DHT22;9121;50.926;5.340;2023-05-10T15:49:31;19.30;1.00
17992;DHT22;9121;50.926;5.340;2023-05-10T15:51:59;19.40;1.00
17992;DHT22;9121;50.926;5.340;2023-05-10T15:54:26;19.50;1.00
17992;DHT22;9121;50.926;5.340;2023-05-10T15:56:53;19.80;1.00
17992;DHT22;9121;50.926;5.340;2023-05-10T15:59:20;20.30;1.00
17992;DHT22;9121;50.926;5.340;2023-05-10T16:01:47;20.70;1.00